sensor_id;sensor_type;location;lat;lon;timestamp;P1;durP1;ratioP1;P2;durP2;ratioP2
3841;SDS011;1936;47.074;15.336;2023-03-01T00:00:41;16.35;;;10.93;;
3841;SDS011;1936;47.074;15.336;2023-03-01T00:02:47;13.40;;;11.00;;
3841;SDS011;1936;47.074;15.336;2023-03-01T00:04:52;13.10;;;10.30;;
3841;SDS011;1936;47.074;15.336;2023-03-01T00:06:56;10.77;;;9.32;;
3841;SDS011;1936;47.074;15.336;2023-03-01T00:08:59;15.68;;;10.98;;
3841;SDS011;1936;47.074;15.336;2023-03-01T00:11:03;14.50;;;11.40;;
3841;SDS011;1936;47.074;15.336;2023-03-01T00:13:08;14.82;;;10.20;;
3841;SDS011;1936;47.074;15.336;2023-03-01T00:15:12;18.45;;;10.65;;
3841;SDS011;1936;47.074;15.336;2023-03-01T00:17:15;13.55;;;10.50;;
3841;SDS011;1936;47.074;15.336;2023-03-01T00:19:19;17.33;;;10.45;;
3841;SDS011;1936;47.074;15.336;2023-03-01T00:21:25;12.88;;;10.48;;
3841;SDS011;1936;47.074;15.336;2023-03-01T00:23:28;17.85;;;11.20;;
3841;SDS011;1936;47.074;15.336;2023-03-01T00:25:32;15.60;;;10.40;;
3841;SDS011;1936;47.074;15.336;2023-03-01T00:27:35;12.45;;;9.80;;
3841;SDS011;1936;47.074;15.336;2023-03-01T00:29:38;14.23;;;11.48;;
3841;SDS011;1936;47.074;15.336;2023-03-01T00:31:42;19.38;;;9.98;;
3841;SDS011;1936;47.074;15.336;2023-03-01T00:33:46;13.52;;;9.70;;
3841;SDS011;1936;47.074;15.336;2023-03-01T00:35:49;13.50;;;10.63;;
3841;SDS011;1936;47.074;15.336;2023-03-01T00:37:54;14.65;;;10.73;;
3841;SDS011;1936;47.074;15.336;2023-03-01T00:39:59;14.52;;;10.48;;
3841;SDS011;1936;47.074;15.336;2023-03-01T00:42:02;17.00;;;11.00;;
3841;SDS011;1936;47.074;15.336;2023-03-01T00:44:06;14.07;;;11.30;;
3841;SDS011;1936;47.074;15.336;2023-03-01T00:46:10;12.65;;;9.82;;
3841;SDS011;1936;47.074;15.336;2023-03-01T00:48:15;13.85;;;10.90;;
3841;SDS011;1936;47.074;15.336;2023-03-01T00:50:19;16.20;;;12.25;;
3841;SDS011;1936;47.074;15.336;2023-03-01T00:52:23;16.48;;;10.48;;
3841;SDS011;1936;47.074;15.336;2023-03-01T00:54:27;13.40;;;10.00;;
3841;SDS011;1936;47.074;15.336;2023-03-01T00:56:32;14.73;;;11.07;;
3841;SDS011;1936;47.074;15.336;2023-03-01T00:58:36;14.95;;;10.80;;
3841;SDS011;1936;47.074;15.336;2023-03-01T01:00:39;15.20;;;11.02;;
3841;SDS011;1936;47.074;15.336;2023-03-01T01:02:43;15.93;;;12.43;;
3841;SDS011;1936;47.074;15.336;2023-03-01T01:04:47;17.48;;;11.10;;
3841;SDS011;1936;47.074;15.336;2023-03-01T01:06:50;18.02;;;12.18;;
3841;SDS011;1936;47.074;15.336;2023-03-01T01:08:54;17.80;;;12.95;;
3841;SDS011;1936;47.074;15.336;2023-03-01T01:10:59;19.10;;;11.48;;
3841;SDS011;1936;47.074;15.336;2023-03-01T01:13:03;14.52;;;11.30;;
3841;SDS011;1936;47.074;15.336;2023-03-01T01:15:07;10.90;;;9.80;;
3841;SDS011;1936;47.074;15.336;2023-03-01T01:17:13;14.40;;;10.52;;
3841;SDS011;1936;47.074;15.336;2023-03-01T01:19:17;13.63;;;10.90;;
3841;SDS011;1936;47.074;15.336;2023-03-01T01:21:21;16.25;;;11.23;;
3841;SDS011;1936;47.074;15.336;2023-03-01T01:23:26;14.50;;;10.48;;
3841;SDS011;1936;47.074;15.336;2023-03-01T01:25:28;11.65;;;10.45;;
3841;SDS011;1936;47.074;15.336;2023-03-01T01:27:33;15.00;;;10.27;;
3841;SDS011;1936;47.074;15.336;2023-03-01T01:29:37;15.07;;;10.65;;
3841;SDS011;1936;47.074;15.336;2023-03-01T01:31:41;17.63;;;12.02;;
3841;SDS011;1936;47.074;15.336;2023-03-01T01:33:45;16.60;;;10.85;;
3841;SDS011;1936;47.074;15.336;2023-03-01T01:35:49;10.55;;;9.43;;
3841;SDS011;1936;47.074;15.336;2023-03-01T01:37:52;12.25;;;9.45;;
3841;SDS011;1936;47.074;15.336;2023-03-01T01:39:56;15.13;;;10.23;;
3841;SDS011;1936;47.074;15.336;2023-03-01T01:41:59;13.50;;;11.20;;
3841;SDS011;1936;47.074;15.336;2023-03-01T01:44:12;13.73;;;11.15;;
3841;SDS011;1936;47.074;15.336;2023-03-01T01:46:21;17.10;;;11.75;;
3841;SDS011;1936;47.074;15.336;2023-03-01T01:48:32;12.68;;;10.40;;
3841;SDS011;1936;47.074;15.336;2023-03-01T01:50:42;15.10;;;10.88;;
3841;SDS011;1936;47.074;15.336;2023-03-01T01:52:49;12.80;;;10.13;;
3841;SDS011;1936;47.074;15.336;2023-03-01T01:54:57;15.13;;;11.50;;
3841;SDS011;1936;47.074;15.336;2023-03-01T01:57:06;16.88;;;11.50;;
3841;SDS011;1936;47.074;15.336;2023-03-01T01:59:15;14.23;;;11.40;;
3841;SDS011;1936;47.074;15.336;2023-03-01T02:01:19;15.63;;;11.63;;
3841;SDS011;1936;47.074;15.336;2023-03-01T02:03:24;16.02;;;11.68;;
3841;SDS011;1936;47.074;15.336;2023-03-01T02:05:33;15.70;;;10.68;;
3841;SDS011;1936;47.074;15.336;2023-03-01T02:07:40;12.88;;;10.13;;
3841;SDS011;1936;47.074;15.336;2023-03-01T02:09:46;15.77;;;10.65;;
3841;SDS011;1936;47.074;15.336;2023-03-01T02:11:51;11.13;;;9.30;;
3841;SDS011;1936;47.074;15.336;2023-03-01T02:13:56;15.27;;;11.45;;
3841;SDS011;1936;47.074;15.336;2023-03-01T02:16:00;15.10;;;11.60;;
3841;SDS011;1936;47.074;15.336;2023-03-01T02:18:06;11.75;;;10.40;;
3841;SDS011;1936;47.074;15.336;2023-03-01T02:20:13;20.00;;;12.13;;
3841;SDS011;1936;47.074;15.336;2023-03-01T02:22:27;16.20;;;12.32;;
3841;SDS011;1936;47.074;15.336;2023-03-01T02:24:34;15.30;;;11.52;;
3841;SDS011;1936;47.074;15.336;2023-03-01T02:26:45;15.63;;;10.70;;
3841;SDS011;1936;47.074;15.336;2023-03-01T02:28:52;14.27;;;11.98;;
3841;SDS011;1936;47.074;15.336;2023-03-01T02:30:56;18.45;;;13.50;;
3841;SDS011;1936;47.074;15.336;2023-03-01T02:33:17;14.65;;;10.93;;
3841;SDS011;1936;47.074;15.336;2023-03-01T02:35:21;14.45;;;12.32;;
3841;SDS011;1936;47.074;15.336;2023-03-01T02:37:25;17.38;;;12.32;;
3841;SDS011;1936;47.074;15.336;2023-03-01T02:39:31;18.38;;;13.10;;
3841;SDS011;1936;47.074;15.336;2023-03-01T02:41:39;16.50;;;10.95;;
3841;SDS011;1936;47.074;15.336;2023-03-01T02:43:45;14.43;;;11.77;;
3841;SDS011;1936;47.074;15.336;2023-03-01T02:45:51;18.17;;;12.90;;
3841;SDS011;1936;47.074;15.336;2023-03-01T02:47:55;19.83;;;11.25;;
3841;SDS011;1936;47.074;15.336;2023-03-01T02:49:59;15.32;;;11.30;;
3841;SDS011;1936;47.074;15.336;2023-03-01T02:54:34;14.15;;;11.13;;
3841;SDS011;1936;47.074;15.336;2023-03-01T02:56:43;17.13;;;12.70;;
3841;SDS011;1936;47.074;15.336;2023-03-01T02:58:49;13.48;;;10.95;;
3841;SDS011;1936;47.074;15.336;2023-03-01T03:00:54;16.58;;;12.40;;
3841;SDS011;1936;47.074;15.336;2023-03-01T03:02:59;15.07;;;11.20;;
3841;SDS011;1936;47.074;15.336;2023-03-01T03:05:06;14.25;;;10.93;;
3841;SDS011;1936;47.074;15.336;2023-03-01T03:07:12;14.73;;;11.35;;
3841;SDS011;1936;47.074;15.336;2023-03-01T03:09:15;15.23;;;10.88;;
3841;SDS011;1936;47.074;15.336;2023-03-01T03:11:20;14.98;;;10.60;;
3841;SDS011;1936;47.074;15.336;2023-03-01T03:13:23;14.10;;;11.55;;
3841;SDS011;1936;47.074;15.336;2023-03-01T03:15:29;13.10;;;9.57;;
3841;SDS011;1936;47.074;15.336;2023-03-01T03:17:35;14.60;;;11.45;;
3841;SDS011;1936;47.074;15.336;2023-03-01T03:19:39;15.13;;;10.88;;
3841;SDS011;1936;47.074;15.336;2023-03-01T03:21:45;15.18;;;11.32;;
3841;SDS011;1936;47.074;15.336;2023-03-01T03:23:49;17.98;;;12.25;;
3841;SDS011;1936;47.074;15.336;2023-03-01T03:25:52;15.43;;;11.88;;
3841;SDS011;1936;47.074;15.336;2023-03-01T03:27:56;14.88;;;11.10;;
3841;SDS011;1936;47.074;15.336;2023-03-01T03:30:00;13.90;;;10.50;;
3841;SDS011;1936;47.074;15.336;2023-03-01T03:32:03;16.92;;;11.18;;
3841;SDS011;1936;47.074;15.336;2023-03-01T03:34:08;14.68;;;11.13;;
3841;SDS011;1936;47.074;15.336;2023-03-01T03:36:19;14.75;;;10.80;;
3841;SDS011;1936;47.074;15.336;2023-03-01T03:38:24;14.40;;;11.40;;
3841;SDS011;1936;47.074;15.336;2023-03-01T03:40:27;16.58;;;11.40;;
3841;SDS011;1936;47.074;15.336;2023-03-01T03:42:31;19.55;;;11.45;;
3841;SDS011;1936;47.074;15.336;2023-03-01T03:44:36;14.70;;;11.60;;
3841;SDS011;1936;47.074;15.336;2023-03-01T03:46:40;16.23;;;12.68;;
3841;SDS011;1936;47.074;15.336;2023-03-01T03:48:43;14.13;;;12.40;;
3841;SDS011;1936;47.074;15.336;2023-03-01T03:50:49;17.60;;;13.82;;
3841;SDS011;1936;47.074;15.336;2023-03-01T03:52:54;13.25;;;10.70;;
3841;SDS011;1936;47.074;15.336;2023-03-01T03:54:58;14.45;;;11.05;;
3841;SDS011;1936;47.074;15.336;2023-03-01T03:57:01;13.57;;;10.57;;
3841;SDS011;1936;47.074;15.336;2023-03-01T03:59:05;13.90;;;11.30;;
3841;SDS011;1936;47.074;15.336;2023-03-01T04:01:08;16.88;;;13.13;;
3841;SDS011;1936;47.074;15.336;2023-03-01T04:03:12;14.05;;;9.82;;
3841;SDS011;1936;47.074;15.336;2023-03-01T04:05:18;17.27;;;11.80;;
3841;SDS011;1936;47.074;15.336;2023-03-01T04:07:23;17.60;;;12.02;;
3841;SDS011;1936;47.074;15.336;2023-03-01T04:09:26;16.27;;;12.48;;
3841;SDS011;1936;47.074;15.336;2023-03-01T04:11:31;16.48;;;11.57;;
3841;SDS011;1936;47.074;15.336;2023-03-01T04:13:36;16.30;;;12.70;;
3841;SDS011;1936;47.074;15.336;2023-03-01T04:15:39;17.75;;;11.70;;
3841;SDS011;1936;47.074;15.336;2023-03-01T04:17:45;18.75;;;13.13;;
3841;SDS011;1936;47.074;15.336;2023-03-01T04:19:49;15.35;;;12.25;;
3841;SDS011;1936;47.074;15.336;2023-03-01T04:21:53;14.00;;;10.70;;
3841;SDS011;1936;47.074;15.336;2023-03-01T04:23:58;16.20;;;11.40;;
3841;SDS011;1936;47.074;15.336;2023-03-01T04:26:03;14.85;;;11.57;;
3841;SDS011;1936;47.074;15.336;2023-03-01T04:28:07;19.10;;;11.85;;
3841;SDS011;1936;47.074;15.336;2023-03-01T04:30:11;15.77;;;12.07;;
3841;SDS011;1936;47.074;15.336;2023-03-01T04:32:15;14.18;;;10.27;;
3841;SDS011;1936;47.074;15.336;2023-03-01T04:34:20;16.70;;;12.07;;
3841;SDS011;1936;47.074;15.336;2023-03-01T04:36:24;13.80;;;11.85;;
3841;SDS011;1936;47.074;15.336;2023-03-01T04:38:29;21.42;;;13.18;;
3841;SDS011;1936;47.074;15.336;2023-03-01T04:40:34;15.43;;;11.88;;
3841;SDS011;1936;47.074;15.336;2023-03-01T04:42:38;15.05;;;11.10;;
3841;SDS011;1936;47.074;15.336;2023-03-01T04:44:41;17.27;;;12.82;;
3841;SDS011;1936;47.074;15.336;2023-03-01T04:46:45;23.35;;;11.65;;
3841;SDS011;1936;47.074;15.336;2023-03-01T04:48:51;19.58;;;11.77;;
3841;SDS011;1936;47.074;15.336;2023-03-01T04:50:54;17.85;;;12.77;;
3841;SDS011;1936;47.074;15.336;2023-03-01T04:52:58;18.50;;;13.52;;
3841;SDS011;1936;47.074;15.336;2023-03-01T04:55:01;16.77;;;11.20;;
3841;SDS011;1936;47.074;15.336;2023-03-01T04:57:07;16.95;;;12.45;;
3841;SDS011;1936;47.074;15.336;2023-03-01T04:59:10;16.38;;;12.05;;
3841;SDS011;1936;47.074;15.336;2023-03-01T05:01:15;17.83;;;12.48;;
3841;SDS011;1936;47.074;15.336;2023-03-01T05:03:20;18.45;;;12.27;;
3841;SDS011;1936;47.074;15.336;2023-03-01T05:05:25;17.13;;;12.85;;
3841;SDS011;1936;47.074;15.336;2023-03-01T05:07:29;16.55;;;11.05;;
3841;SDS011;1936;47.074;15.336;2023-03-01T05:09:33;18.50;;;13.15;;
3841;SDS011;1936;47.074;15.336;2023-03-01T05:11:36;15.80;;;11.50;;
3841;SDS011;1936;47.074;15.336;2023-03-01T05:13:41;14.98;;;12.10;;
3841;SDS011;1936;47.074;15.336;2023-03-01T05:15:45;16.45;;;12.85;;
3841;SDS011;1936;47.074;15.336;2023-03-01T05:17:49;14.45;;;11.30;;
3841;SDS011;1936;47.074;15.336;2023-03-01T05:19:53;14.13;;;10.43;;
3841;SDS011;1936;47.074;15.336;2023-03-01T05:21:57;14.88;;;11.63;;
3841;SDS011;1936;47.074;15.336;2023-03-01T05:24:06;16.75;;;12.38;;
3841;SDS011;1936;47.074;15.336;2023-03-01T05:26:13;17.10;;;12.10;;
3841;SDS011;1936;47.074;15.336;2023-03-01T05:28:28;16.88;;;11.82;;
3841;SDS011;1936;47.074;15.336;2023-03-01T05:30:33;13.18;;;11.27;;
3841;SDS011;1936;47.074;15.336;2023-03-01T05:32:42;17.70;;;10.63;;
3841;SDS011;1936;47.074;15.336;2023-03-01T05:34:47;17.05;;;12.48;;
3841;SDS011;1936;47.074;15.336;2023-03-01T05:36:50;18.10;;;12.40;;
3841;SDS011;1936;47.074;15.336;2023-03-01T05:38:54;16.02;;;11.70;;
3841;SDS011;1936;47.074;15.336;2023-03-01T05:40:58;19.27;;;13.35;;
3841;SDS011;1936;47.074;15.336;2023-03-01T05:43:01;16.48;;;12.25;;
3841;SDS011;1936;47.074;15.336;2023-03-01T05:45:07;19.17;;;12.85;;
3841;SDS011;1936;47.074;15.336;2023-03-01T05:47:13;13.25;;;11.85;;
3841;SDS011;1936;47.074;15.336;2023-03-01T05:49:16;16.27;;;11.13;;
3841;SDS011;1936;47.074;15.336;2023-03-01T05:51:20;17.98;;;12.65;;
3841;SDS011;1936;47.074;15.336;2023-03-01T05:53:24;13.52;;;11.20;;
3841;SDS011;1936;47.074;15.336;2023-03-01T05:55:28;22.33;;;10.93;;
3841;SDS011;1936;47.074;15.336;2023-03-01T05:57:32;23.55;;;12.88;;
3841;SDS011;1936;47.074;15.336;2023-03-01T05:59:35;17.88;;;11.77;;
3841;SDS011;1936;47.074;15.336;2023-03-01T06:01:39;22.55;;;13.20;;
3841;SDS011;1936;47.074;15.336;2023-03-01T06:03:43;17.95;;;12.75;;
3841;SDS011;1936;47.074;15.336;2023-03-01T06:05:47;17.27;;;12.00;;
3841;SDS011;1936;47.074;15.336;2023-03-01T06:07:50;16.38;;;11.95;;
3841;SDS011;1936;47.074;15.336;2023-03-01T06:09:54;15.40;;;11.40;;
3841;SDS011;1936;47.074;15.336;2023-03-01T06:11:58;18.20;;;13.30;;
3841;SDS011;1936;47.074;15.336;2023-03-01T06:14:01;18.60;;;13.98;;
3841;SDS011;1936;47.074;15.336;2023-03-01T06:16:06;18.20;;;13.35;;
3841;SDS011;1936;47.074;15.336;2023-03-01T06:18:10;18.45;;;14.18;;
3841;SDS011;1936;47.074;15.336;2023-03-01T06:20:16;18.17;;;14.15;;
3841;SDS011;1936;47.074;15.336;2023-03-01T06:22:20;15.57;;;12.38;;
3841;SDS011;1936;47.074;15.336;2023-03-01T06:24:24;16.52;;;13.35;;
3841;SDS011;1936;47.074;15.336;2023-03-01T06:26:30;15.52;;;11.30;;
3841;SDS011;1936;47.074;15.336;2023-03-01T06:28:33;13.15;;;10.57;;
3841;SDS011;1936;47.074;15.336;2023-03-01T06:30:37;19.30;;;13.20;;
3841;SDS011;1936;47.074;15.336;2023-03-01T06:32:41;18.85;;;12.48;;
3841;SDS011;1936;47.074;15.336;2023-03-01T06:34:44;14.43;;;10.30;;
3841;SDS011;1936;47.074;15.336;2023-03-01T06:36:49;16.77;;;12.13;;
3841;SDS011;1936;47.074;15.336;2023-03-01T06:38:53;14.60;;;10.95;;
3841;SDS011;1936;47.074;15.336;2023-03-01T06:40:56;16.05;;;11.20;;
3841;SDS011;1936;47.074;15.336;2023-03-01T06:42:59;18.95;;;12.82;;
3841;SDS011;1936;47.074;15.336;2023-03-01T06:45:04;18.15;;;11.43;;
3841;SDS011;1936;47.074;15.336;2023-03-01T06:47:08;15.40;;;10.45;;
3841;SDS011;1936;47.074;15.336;2023-03-01T06:49:12;16.42;;;12.15;;
3841;SDS011;1936;47.074;15.336;2023-03-01T06:51:17;17.27;;;12.70;;
3841;SDS011;1936;47.074;15.336;2023-03-01T06:53:22;19.38;;;13.68;;
3841;SDS011;1936;47.074;15.336;2023-03-01T06:55:26;16.20;;;12.40;;
3841;SDS011;1936;47.074;15.336;2023-03-01T06:57:29;18.98;;;12.32;;
3841;SDS011;1936;47.074;15.336;2023-03-01T06:59:32;17.52;;;12.52;;
3841;SDS011;1936;47.074;15.336;2023-03-01T07:01:36;13.60;;;11.93;;
3841;SDS011;1936;47.074;15.336;2023-03-01T07:03:40;14.00;;;12.27;;
3841;SDS011;1936;47.074;15.336;2023-03-01T07:05:47;13.90;;;11.05;;
3841;SDS011;1936;47.074;15.336;2023-03-01T07:07:53;16.55;;;12.50;;
3841;SDS011;1936;47.074;15.336;2023-03-01T07:09:59;19.60;;;12.85;;
3841;SDS011;1936;47.074;15.336;2023-03-01T07:12:03;16.85;;;11.15;;
3841;SDS011;1936;47.074;15.336;2023-03-01T07:14:06;15.35;;;12.15;;
3841;SDS011;1936;47.074;15.336;2023-03-01T07:16:10;13.50;;;11.48;;
3841;SDS011;1936;47.074;15.336;2023-03-01T07:18:13;18.55;;;13.52;;
3841;SDS011;1936;47.074;15.336;2023-03-01T07:20:17;15.65;;;12.95;;
3841;SDS011;1936;47.074;15.336;2023-03-01T07:22:23;20.98;;;12.10;;
3841;SDS011;1936;47.074;15.336;2023-03-01T07:24:27;23.38;;;14.05;;
3841;SDS011;1936;47.074;15.336;2023-03-01T07:26:32;17.58;;;13.35;;
3841;SDS011;1936;47.074;15.336;2023-03-01T07:28:35;16.13;;;12.77;;
3841;SDS011;1936;47.074;15.336;2023-03-01T07:30:40;15.07;;;12.52;;
3841;SDS011;1936;47.074;15.336;2023-03-01T07:32:43;16.45;;;12.85;;
3841;SDS011;1936;47.074;15.336;2023-03-01T07:34:48;14.63;;;10.90;;
3841;SDS011;1936;47.074;15.336;2023-03-01T07:36:51;15.32;;;10.52;;
3841;SDS011;1936;47.074;15.336;2023-03-01T07:38:55;17.52;;;11.65;;
3841;SDS011;1936;47.074;15.336;2023-03-01T07:40:59;22.50;;;13.00;;
3841;SDS011;1936;47.074;15.336;2023-03-01T07:43:05;16.08;;;13.25;;
3841;SDS011;1936;47.074;15.336;2023-03-01T07:45:08;23.70;;;18.25;;
3841;SDS011;1936;47.074;15.336;2023-03-01T07:47:14;37.00;;;27.17;;
3841;SDS011;1936;47.074;15.336;2023-03-01T07:49:18;36.92;;;26.60;;
3841;SDS011;1936;47.074;15.336;2023-03-01T07:51:21;27.38;;;20.13;;
3841;SDS011;1936;47.074;15.336;2023-03-01T07:53:25;21.42;;;18.27;;
3841;SDS011;1936;47.074;15.336;2023-03-01T07:55:29;16.70;;;14.57;;
3841;SDS011;1936;47.074;15.336;2023-03-01T07:57:32;18.02;;;14.40;;
3841;SDS011;1936;47.074;15.336;2023-03-01T07:59:37;16.10;;;12.63;;
3841;SDS011;1936;47.074;15.336;2023-03-01T08:01:41;12.38;;;10.75;;
3841;SDS011;1936;47.074;15.336;2023-03-01T08:03:45;15.98;;;11.82;;
3841;SDS011;1936;47.074;15.336;2023-03-01T08:05:48;16.05;;;12.55;;
3841;SDS011;1936;47.074;15.336;2023-03-01T08:07:52;20.92;;;13.50;;
3841;SDS011;1936;47.074;15.336;2023-03-01T08:09:55;18.00;;;13.18;;
3841;SDS011;1936;47.074;15.336;2023-03-01T08:11:59;17.33;;;12.20;;
3841;SDS011;1936;47.074;15.336;2023-03-01T08:14:03;16.17;;;12.68;;
3841;SDS011;1936;47.074;15.336;2023-03-01T08:16:09;24.10;;;15.73;;
3841;SDS011;1936;47.074;15.336;2023-03-01T08:18:14;16.63;;;13.27;;
3841;SDS011;1936;47.074;15.336;2023-03-01T08:20:18;15.18;;;11.73;;
3841;SDS011;1936;47.074;15.336;2023-03-01T08:22:22;17.67;;;13.18;;
3841;SDS011;1936;47.074;15.336;2023-03-01T08:24:25;16.80;;;11.30;;
3841;SDS011;1936;47.074;15.336;2023-03-01T08:26:29;20.77;;;12.25;;
3841;SDS011;1936;47.074;15.336;2023-03-01T08:28:33;18.73;;;12.30;;
3841;SDS011;1936;47.074;15.336;2023-03-01T08:30:36;16.25;;;12.00;;
3841;SDS011;1936;47.074;15.336;2023-03-01T08:32:41;16.08;;;12.35;;
3841;SDS011;1936;47.074;15.336;2023-03-01T08:34:46;19.52;;;13.45;;
3841;SDS011;1936;47.074;15.336;2023-03-01T08:36:50;17.48;;;13.43;;
3841;SDS011;1936;47.074;15.336;2023-03-01T08:38:54;16.15;;;12.57;;
3841;SDS011;1936;47.074;15.336;2023-03-01T08:40:59;14.68;;;12.95;;
3841;SDS011;1936;47.074;15.336;2023-03-01T08:43:03;17.98;;;12.80;;
3841;SDS011;1936;47.074;15.336;2023-03-01T08:45:07;16.60;;;13.07;;
3841;SDS011;1936;47.074;15.336;2023-03-01T08:47:11;13.45;;;11.25;;
3841;SDS011;1936;47.074;15.336;2023-03-01T08:49:17;15.38;;;12.65;;
3841;SDS011;1936;47.074;15.336;2023-03-01T08:51:21;16.80;;;12.38;;
3841;SDS011;1936;47.074;15.336;2023-03-01T08:53:25;15.30;;;11.88;;
3841;SDS011;1936;47.074;15.336;2023-03-01T08:55:28;17.40;;;13.48;;
3841;SDS011;1936;47.074;15.336;2023-03-01T08:57:32;15.35;;;13.25;;
3841;SDS011;1936;47.074;15.336;2023-03-01T08:59:35;17.42;;;13.50;;
3841;SDS011;1936;47.074;15.336;2023-03-01T09:01:39;14.43;;;12.63;;
3841;SDS011;1936;47.074;15.336;2023-03-01T09:03:44;17.15;;;12.98;;
3841;SDS011;1936;47.074;15.336;2023-03-01T09:05:50;21.63;;;13.55;;
3841;SDS011;1936;47.074;15.336;2023-03-01T09:07:54;17.52;;;12.80;;
3841;SDS011;1936;47.074;15.336;2023-03-01T09:09:57;18.60;;;13.27;;
3841;SDS011;1936;47.074;15.336;2023-03-01T09:12:01;18.50;;;14.65;;
3841;SDS011;1936;47.074;15.336;2023-03-01T09:14:05;14.73;;;12.65;;
3841;SDS011;1936;47.074;15.336;2023-03-01T09:16:09;17.90;;;13.40;;
3841;SDS011;1936;47.074;15.336;2023-03-01T09:18:14;19.80;;;13.82;;
3841;SDS011;1936;47.074;15.336;2023-03-01T09:20:17;15.73;;;13.00;;
3841;SDS011;1936;47.074;15.336;2023-03-01T09:22:22;16.95;;;12.77;;
3841;SDS011;1936;47.074;15.336;2023-03-01T09:24:26;14.82;;;12.95;;
3841;SDS011;1936;47.074;15.336;2023-03-01T09:26:29;16.92;;;14.15;;
3841;SDS011;1936;47.074;15.336;2023-03-01T09:28:33;18.45;;;13.02;;
3841;SDS011;1936;47.074;15.336;2023-03-01T09:30:37;22.88;;;14.15;;
3841;SDS011;1936;47.074;15.336;2023-03-01T09:32:41;23.33;;;13.32;;
3841;SDS011;1936;47.074;15.336;2023-03-01T09:34:46;17.50;;;12.80;;
3841;SDS011;1936;47.074;15.336;2023-03-01T09:37:06;15.07;;;12.55;;
3841;SDS011;1936;47.074;15.336;2023-03-01T09:39:11;20.60;;;12.98;;
3841;SDS011;1936;47.074;15.336;2023-03-01T09:41:19;16.80;;;12.88;;
3841;SDS011;1936;47.074;15.336;2023-03-01T09:43:40;18.27;;;14.30;;
3841;SDS011;1936;47.074;15.336;2023-03-01T09:45:49;17.98;;;13.00;;
3841;SDS011;1936;47.074;15.336;2023-03-01T09:47:55;14.32;;;12.23;;
3841;SDS011;1936;47.074;15.336;2023-03-01T09:50:01;19.15;;;12.60;;
3841;SDS011;1936;47.074;15.336;2023-03-01T09:52:24;16.58;;;12.68;;
3841;SDS011;1936;47.074;15.336;2023-03-01T09:54:37;14.65;;;11.55;;
3841;SDS011;1936;47.074;15.336;2023-03-01T09:56:41;15.95;;;12.80;;
3841;SDS011;1936;47.074;15.336;2023-03-01T09:58:51;17.33;;;12.27;;
3841;SDS011;1936;47.074;15.336;2023-03-01T10:01:06;16.30;;;12.10;;
3841;SDS011;1936;47.074;15.336;2023-03-01T10:03:22;13.35;;;11.50;;
3841;SDS011;1936;47.074;15.336;2023-03-01T10:05:41;18.52;;;12.60;;
3841;SDS011;1936;47.074;15.336;2023-03-01T10:07:54;18.05;;;10.75;;
3841;SDS011;1936;47.074;15.336;2023-03-01T10:10:20;17.83;;;12.32;;
3841;SDS011;1936;47.074;15.336;2023-03-01T10:12:31;15.93;;;12.63;;
3841;SDS011;1936;47.074;15.336;2023-03-01T10:14:39;15.77;;;11.80;;
3841;SDS011;1936;47.074;15.336;2023-03-01T10:16:51;19.17;;;14.32;;
3841;SDS011;1936;47.074;15.336;2023-03-01T10:19:00;16.58;;;12.85;;
3841;SDS011;1936;47.074;15.336;2023-03-01T10:21:11;25.08;;;15.32;;
3841;SDS011;1936;47.074;15.336;2023-03-01T10:23:18;22.90;;;12.48;;
3841;SDS011;1936;47.074;15.336;2023-03-01T10:25:27;14.05;;;11.27;;
3841;SDS011;1936;47.074;15.336;2023-03-01T10:27:45;14.75;;;11.18;;
3841;SDS011;1936;47.074;15.336;2023-03-01T10:29:56;18.17;;;13.50;;
3841;SDS011;1936;47.074;15.336;2023-03-01T10:32:08;17.70;;;12.13;;
3841;SDS011;1936;47.074;15.336;2023-03-01T10:34:14;14.93;;;12.95;;
3841;SDS011;1936;47.074;15.336;2023-03-01T10:36:19;14.77;;;11.23;;
3841;SDS011;1936;47.074;15.336;2023-03-01T10:38:22;19.05;;;12.70;;
3841;SDS011;1936;47.074;15.336;2023-03-01T10:40:28;17.60;;;12.70;;
3841;SDS011;1936;47.074;15.336;2023-03-01T10:42:33;13.35;;;10.98;;
3841;SDS011;1936;47.074;15.336;2023-03-01T10:44:40;15.82;;;11.82;;
3841;SDS011;1936;47.074;15.336;2023-03-01T10:46:45;16.25;;;11.38;;
3841;SDS011;1936;47.074;15.336;2023-03-01T10:49:05;15.25;;;11.23;;
3841;SDS011;1936;47.074;15.336;2023-03-01T10:51:16;13.88;;;11.52;;
3841;SDS011;1936;47.074;15.336;2023-03-01T10:53:22;13.63;;;11.10;;
3841;SDS011;1936;47.074;15.336;2023-03-01T10:55:31;20.05;;;12.55;;
3841;SDS011;1936;47.074;15.336;2023-03-01T10:57:38;16.88;;;12.48;;
3841;SDS011;1936;47.074;15.336;2023-03-01T10:59:43;20.13;;;13.68;;
3841;SDS011;1936;47.074;15.336;2023-03-01T11:01:46;18.15;;;12.95;;
3841;SDS011;1936;47.074;15.336;2023-03-01T11:04:15;19.15;;;13.68;;
3841;SDS011;1936;47.074;15.336;2023-03-01T11:06:20;18.45;;;12.45;;
3841;SDS011;1936;47.074;15.336;2023-03-01T11:08:38;17.75;;;12.07;;
3841;SDS011;1936;47.074;15.336;2023-03-01T11:10:44;16.70;;;12.85;;
3841;SDS011;1936;47.074;15.336;2023-03-01T11:12:48;18.52;;;13.00;;
3841;SDS011;1936;47.074;15.336;2023-03-01T11:14:54;17.77;;;11.85;;
3841;SDS011;1936;47.074;15.336;2023-03-01T11:16:59;15.90;;;13.13;;
3841;SDS011;1936;47.074;15.336;2023-03-01T11:19:13;15.63;;;12.35;;
3841;SDS011;1936;47.074;15.336;2023-03-01T11:21:21;17.25;;;13.65;;
3841;SDS011;1936;47.074;15.336;2023-03-01T11:23:27;16.00;;;12.88;;
3841;SDS011;1936;47.074;15.336;2023-03-01T11:25:34;16.35;;;11.48;;
3841;SDS011;1936;47.074;15.336;2023-03-01T11:27:41;18.65;;;12.90;;
3841;SDS011;1936;47.074;15.336;2023-03-01T11:29:48;22.60;;;13.70;;
3841;SDS011;1936;47.074;15.336;2023-03-01T11:31:57;14.73;;;12.00;;
3841;SDS011;1936;47.074;15.336;2023-03-01T11:34:05;19.10;;;12.90;;
3841;SDS011;1936;47.074;15.336;2023-03-01T11:36:17;16.23;;;12.60;;
3841;SDS011;1936;47.074;15.336;2023-03-01T11:38:27;19.80;;;13.45;;
3841;SDS011;1936;47.074;15.336;2023-03-01T11:40:33;20.52;;;13.43;;
3841;SDS011;1936;47.074;15.336;2023-03-01T11:42:46;18.58;;;13.23;;
3841;SDS011;1936;47.074;15.336;2023-03-01T11:44:57;18.55;;;12.40;;
3841;SDS011;1936;47.074;15.336;2023-03-01T11:47:08;20.52;;;13.10;;
3841;SDS011;1936;47.074;15.336;2023-03-01T11:51:53;16.42;;;12.70;;
3841;SDS011;1936;47.074;15.336;2023-03-01T11:54:09;18.05;;;12.30;;
3841;SDS011;1936;47.074;15.336;2023-03-01T11:56:23;22.48;;;13.75;;
3841;SDS011;1936;47.074;15.336;2023-03-01T12:01:25;18.33;;;12.93;;
3841;SDS011;1936;47.074;15.336;2023-03-01T12:03:47;18.58;;;14.82;;
3841;SDS011;1936;47.074;15.336;2023-03-01T12:06:05;18.48;;;12.73;;
3841;SDS011;1936;47.074;15.336;2023-03-01T12:08:26;18.15;;;12.40;;
3841;SDS011;1936;47.074;15.336;2023-03-01T12:10:37;14.68;;;12.05;;
3841;SDS011;1936;47.074;15.336;2023-03-01T12:12:50;20.38;;;12.85;;
3841;SDS011;1936;47.074;15.336;2023-03-01T12:15:24;15.02;;;12.35;;
3841;SDS011;1936;47.074;15.336;2023-03-01T12:17:47;20.42;;;12.88;;
3841;SDS011;1936;47.074;15.336;2023-03-01T12:20:04;16.60;;;12.10;;
3841;SDS011;1936;47.074;15.336;2023-03-01T12:22:21;22.77;;;13.77;;
3841;SDS011;1936;47.074;15.336;2023-03-01T12:24:41;17.42;;;12.88;;
3841;SDS011;1936;47.074;15.336;2023-03-01T12:27:00;16.67;;;12.43;;
3841;SDS011;1936;47.074;15.336;2023-03-01T12:29:16;20.27;;;14.20;;
3841;SDS011;1936;47.074;15.336;2023-03-01T12:31:34;16.88;;;12.57;;
3841;SDS011;1936;47.074;15.336;2023-03-01T12:34:11;15.05;;;12.43;;
3841;SDS011;1936;47.074;15.336;2023-03-01T12:36:31;16.30;;;11.13;;
3841;SDS011;1936;47.074;15.336;2023-03-01T12:38:45;17.75;;;12.88;;